PALJ

Details ICAO PALJ
Name Port Alsworth
Region USA (Alaska)
Timezone America/Anchorage (UTC-8.0)
Plans Departing 0
Arriving 2
Stats Elevation 280 ft / 85 m (AMSL)
Location 60.204333° -154.318873°
Runways 1
Magnetic Variation 14.393° E
Sunrise 2018-05-22 13:23:13 UTC / 2018-05-22 05:23:13 Local
Sunset 2018-05-23 07:07:35 UTC / 2018-05-22 23:07:35 Local
Advertisement - Login to hide

Runways

ID Width Length Bearing (true) Bearing (mag) Surface Threshold Offset Overrun Length
05 100 ft / 30 m 3,003 ft / 915 m 71.99° 57.60° Dirt 0 ft / 0 m 0 ft / 0 m
23 100 ft / 30 m 3,003 ft / 915 m 252.01° 237.62° Dirt 0 ft / 0 m 0 ft / 0 m

Map

Weather


0- 5 10 15 20 25 30 35+ Temperature / ° C

Clouds and Precipitation
Forecast for 2018-05-22 18:00 UTC. Updated an hour ago

Ground ~20,000 ft ~40,000 ft Winds

METAR

PALJ 221658Z 23007KT 40SM FEW100 11/07 A2961 RMK EST PASS OPN NOSPECI

TAF

Not found
Warning: Do not use this data for real-world aviation or navigation. No guarantee of current accuracy is given.